Time;durP1;ratioP1;P1;durP2;ratioP2;P2;SDS_P1;SDS_P2;PMS_P1;PMS_P2;Temp;Humidity;BMP_temperature;BMP_pressure;BME280_temperature;BME280_humidity;BME280_pressure;Samples;Min_cycle;Max_cycle;Signal;HPM_P1;HPM_P2
2023/12/09 00:00:52;;;;;;;42.58;21.08;;;;;;;-0.33;nan;100913.03;5081243;28;20226;-68
2023/12/09 00:03:18;;;;;;;41.53;19.98;;;;;;;-0.24;nan;100930.31;5082283;28;20389;-68
2023/12/09 00:05:43;;;;;;;44.85;20.30;;;;;;;-0.32;nan;100922.41;5086820;28;20500;-68
2023/12/09 00:08:08;;;;;;;40.40;18.80;;;;;;;-0.34;nan;100918.34;5090123;28;20490;-67
2023/12/09 00:10:34;;;;;;;38.55;17.98;;;;;;;-0.33;nan;100923.38;5077258;28;20040;-68
2023/12/09 00:13:00;;;;;;;39.88;18.00;;;;;;;-0.44;nan;100905.44;5089402;28;20032;-68
2023/12/09 00:15:25;;;;;;;38.75;17.33;;;;;;;-0.37;nan;100923.81;5072450;28;20035;-68
2023/12/09 00:17:51;;;;;;;36.90;17.35;;;;;;;-0.46;nan;100921.09;5092566;28;20032;-69
2023/12/09 00:20:16;;;;;;;36.63;17.08;;;;;;;-0.57;nan;100913.50;5091917;28;20043;-68
2023/12/09 00:22:42;;;;;;;31.35;15.70;;;;;;;-0.61;nan;100914.72;5085117;28;20040;-68
2023/12/09 00:25:07;;;;;;;34.88;16.30;;;;;;;-0.63;nan;100921.00;5088864;28;20031;-68
2023/12/09 00:27:34;;;;;;;36.30;16.17;;;;;;;-0.73;nan;100927.00;5087797;28;20016;-68
2023/12/09 00:29:59;;;;;;;34.08;16.30;;;;;;;-0.73;nan;100933.94;5070748;28;20836;-68
2023/12/09 00:32:25;;;;;;;36.33;15.68;;;;;;;-0.79;nan;100926.72;5077706;28;20027;-69
2023/12/09 00:34:50;;;;;;;33.20;16.08;;;;;;;-0.83;nan;100923.63;5074229;28;20034;-67
2023/12/09 00:37:16;;;;;;;36.55;17.02;;;;;;;-0.75;nan;100930.69;5082921;28;20025;-67
2023/12/09 00:39:41;;;;;;;34.47;15.20;;;;;;;-0.81;nan;100920.88;5085760;28;20020;-68
2023/12/09 00:42:06;;;;;;;31.23;14.75;;;;;;;-0.82;nan;100920.06;5091316;28;20024;-68
2023/12/09 00:44:32;;;;;;;31.90;14.90;;;;;;;-0.86;nan;100926.47;5089144;28;20054;-68
2023/12/09 00:46:57;;;;;;;34.90;16.02;;;;;;;-0.97;nan;100913.69;5096024;28;20102;-68
2023/12/09 00:49:23;;;;;;;32.75;15.10;;;;;;;-0.98;nan;100912.03;5081848;28;20027;-68
2023/12/09 00:51:49;;;;;;;34.97;15.70;;;;;;;-1.01;nan;100913.13;5073683;28;20045;-68
2023/12/09 00:54:14;;;;;;;32.38;15.18;;;;;;;-0.98;nan;100918.06;5083046;28;20509;-66
2023/12/09 00:56:40;;;;;;;33.45;15.25;;;;;;;-1.02;nan;100913.28;5091854;28;20062;-68
2023/12/09 00:59:05;;;;;;;33.50;16.40;;;;;;;-1.10;nan;100908.81;5083707;28;20029;-68
2023/12/09 01:01:33;;;;;;;38.97;17.17;;;;;;;-1.09;nan;100918.19;5086106;28;20024;-67
2023/12/09 01:03:59;;;;;;;38.08;16.85;;;;;;;-1.10;nan;100916.56;5092160;28;20470;-68
2023/12/09 01:06:25;;;;;;;36.13;16.85;;;;;;;-1.13;nan;100921.97;5102424;28;20000;-68
2023/12/09 01:08:50;;;;;;;36.40;17.30;;;;;;;-1.12;nan;100931.38;5084516;28;20023;-66
2023/12/09 01:11:16;;;;;;;37.65;16.80;;;;;;;-1.09;nan;100933.69;5112578;28;20031;-68
2023/12/09 01:13:41;;;;;;;35.97;16.92;;;;;;;-1.22;nan;100926.22;5098872;28;20031;-71
2023/12/09 01:16:07;;;;;;;36.22;15.85;;;;;;;-1.20;nan;100921.69;5102832;28;20034;-71
2023/12/09 01:18:33;;;;;;;36.65;16.05;;;;;;;-1.31;nan;100904.56;5114733;28;20020;-71
2023/12/09 01:20:58;;;;;;;36.03;16.85;;;;;;;-1.26;nan;100919.66;5115140;28;20024;-72
2023/12/09 01:23:23;;;;;;;37.97;18.30;;;;;;;-1.39;nan;100896.69;5110494;28;20071;-72
2023/12/09 01:25:49;;;;;;;35.83;17.38;;;;;;;-1.33;nan;100905.66;5104831;28;20028;-70
2023/12/09 01:28:14;;;;;;;36.35;17.67;;;;;;;-1.19;nan;100925.13;5106451;28;20028;-71
2023/12/09 01:30:40;;;;;;;40.35;18.10;;;;;;;-1.23;nan;100918.59;5096537;28;20032;-71
2023/12/09 01:33:05;;;;;;;40.53;19.15;;;;;;;-1.16;nan;100922.25;5092618;28;20981;-72
2023/12/09 01:35:30;;;;;;;46.83;20.77;;;;;;;-1.16;nan;100922.25;5084208;28;20040;-71
2023/12/09 01:37:56;;;;;;;43.38;20.65;;;;;;;-1.17;nan;100918.06;5083209;28;20025;-71
2023/12/09 01:40:21;;;;;;;43.70;19.75;;;;;;;-1.29;nan;100907.03;5086895;28;20509;-70
2023/12/09 01:42:47;;;;;;;42.60;19.15;;;;;;;-1.23;nan;100910.81;5087617;28;20023;-70
2023/12/09 01:45:12;;;;;;;60.25;20.80;;;;;;;-1.30;nan;100890.69;5093221;28;20024;-71
2023/12/09 01:47:38;;;;;;;41.78;19.70;;;;;;;-1.15;nan;100910.94;5085339;28;20077;-70
2023/12/09 01:50:06;;;;;;;45.15;20.17;;;;;;;-1.18;nan;100911.22;5087481;28;20032;-70
2023/12/09 01:52:32;;;;;;;45.15;20.15;;;;;;;-1.23;nan;100906.47;5087308;28;20024;-70
2023/12/09 01:54:59;;;;;;;41.85;19.27;;;;;;;-1.30;nan;100905.38;5082344;28;20031;-71
2023/12/09 01:57:25;;;;;;;42.92;20.58;;;;;;;-1.24;nan;100909.22;5085777;28;20031;-71
2023/12/09 01:59:51;;;;;;;44.88;20.00;;;;;;;-1.39;nan;100890.69;5080700;28;20036;-71
2023/12/09 02:02:17;;;;;;;47.42;20.48;;;;;;;-1.31;nan;100889.06;5080193;28;20024;-72
2023/12/09 02:04:42;;;;;;;46.85;21.33;;;;;;;-1.37;nan;100892.19;5089745;28;20024;-72
2023/12/09 02:07:07;;;;;;;47.92;21.55;;;;;;;-1.42;nan;100880.63;5089379;28;20050;-72
2023/12/09 02:09:33;;;;;;;45.42;21.48;;;;;;;-1.34;nan;100886.75;5086623;28;20027;-72
2023/12/09 02:12:12;;;;;;;48.08;21.83;;;;;;;-1.34;nan;100896.25;5085653;28;20016;-71
2023/12/09 02:15:03;;;;;;;48.67;22.95;;;;;;;-1.41;nan;100893.41;5065530;28;20020;-72
2023/12/09 02:17:39;;;;;;;53.45;23.27;;;;;;;-1.39;nan;100899.28;5085463;28;20029;-72
2023/12/09 02:20:08;;;;;;;48.38;22.00;;;;;;;-1.48;nan;100892.31;5076256;28;20024;-72
2023/12/09 02:22:33;;;;;;;50.05;21.35;;;;;;;-1.50;nan;100902.78;5083525;28;20028;-71
2023/12/09 02:24:59;;;;;;;49.15;21.67;;;;;;;-1.46;nan;100912.84;5080773;28;20031;-72
2023/12/09 02:27:42;;;;;;;56.88;23.38;;;;;;;-1.52;nan;100896.13;5089172;28;20036;-71
2023/12/09 02:30:08;;;;;;;55.22;24.08;;;;;;;-1.43;nan;100908.22;5084534;28;20386;-72
2023/12/09 02:32:34;;;;;;;57.22;24.42;;;;;;;-1.52;nan;100896.13;5089416;28;20027;-70
2023/12/09 02:35:02;;;;;;;60.47;25.70;;;;;;;-1.59;nan;100895.00;5082875;28;20115;-72
2023/12/09 02:37:30;;;;;;;55.28;25.27;;;;;;;-1.50;nan;100907.94;5072437;28;20082;-71
2023/12/09 02:39:57;;;;;;;57.88;24.83;;;;;;;-1.55;nan;100894.63;5084694;28;20058;-70
2023/12/09 02:42:25;;;;;;;54.58;24.30;;;;;;;-1.53;nan;100899.66;5090893;28;20431;-70
2023/12/09 02:44:50;;;;;;;60.53;25.85;;;;;;;-1.48;nan;100906.97;5083627;28;20731;-70
2023/12/09 02:47:16;;;;;;;54.50;23.88;;;;;;;-1.57;nan;100900.88;5079846;28;20028;-70
2023/12/09 02:49:42;;;;;;;56.13;24.63;;;;;;;-1.52;nan;100898.69;5080777;28;20878;-70
2023/12/09 02:52:09;;;;;;;50.65;23.25;;;;;;;-1.46;nan;100912.84;5080684;28;20131;-71
2023/12/09 02:54:34;;;;;;;55.10;23.88;;;;;;;-1.57;nan;100886.19;5088359;28;20501;-71
2023/12/09 02:57:00;;;;;;;49.53;22.27;;;;;;;-1.60;nan;100877.91;5088752;28;20032;-70
2023/12/09 02:59:28;;;;;;;52.20;23.38;;;;;;;-1.49;nan;100901.00;5080587;28;20024;-71
2023/12/09 03:01:54;;;;;;;133.93;27.33;;;;;;;-1.64;nan;100887.66;5088878;28;20032;-71
2023/12/09 03:04:19;;;;;;;45.92;21.40;;;;;;;-1.51;nan;100908.91;5075983;28;20028;-71
2023/12/09 03:06:45;;;;;;;45.53;20.45;;;;;;;-1.64;nan;100886.84;5085862;28;20043;-70
2023/12/09 03:09:10;;;;;;;46.92;21.40;;;;;;;-1.61;nan;100897.72;5064931;28;20028;-71
2023/12/09 03:11:36;;;;;;;48.10;20.13;;;;;;;-1.55;nan;100912.69;5065617;28;20024;-71
2023/12/09 03:14:01;;;;;;;44.65;20.45;;;;;;;-1.75;nan;100900.69;5085038;28;20559;-71
2023/12/09 03:16:27;;;;;;;48.92;20.60;;;;;;;-1.71;nan;100912.38;5071284;28;20111;-70
2023/12/09 03:18:52;;;;;;;45.20;18.65;;;;;;;-1.73;nan;100912.50;5086747;28;20032;-71
2023/12/09 03:21:17;;;;;;;40.92;18.83;;;;;;;-1.74;nan;100913.47;5081507;28;20035;-71
2023/12/09 03:23:43;;;;;;;39.45;18.05;;;;;;;-1.75;nan;100905.84;5079896;28;20027;-71
2023/12/09 03:26:19;;;;;;;48.03;19.73;;;;;;;-1.79;nan;100905.31;5081848;28;20032;-70
2023/12/09 03:28:45;;;;;;;39.38;18.15;;;;;;;-1.77;nan;100893.09;5080959;28;20024;-70
2023/12/09 03:31:14;;;;;;;63.28;22.00;;;;;;;-1.72;nan;100906.41;5081384;28;20493;-71
2023/12/09 03:33:41;;;;;;;46.38;19.63;;;;;;;-1.74;nan;100892.00;5082440;28;20032;-70
2023/12/09 03:36:08;;;;;;;44.70;19.83;;;;;;;-1.63;nan;100909.13;5078740;28;20513;-72
2023/12/09 03:38:34;;;;;;;46.30;19.40;;;;;;;-1.68;nan;100903.56;5085002;28;20035;-72
2023/12/09 03:40:59;;;;;;;39.08;18.23;;;;;;;-1.76;nan;100902.44;5084815;28;20028;-72
2023/12/09 03:43:25;;;;;;;43.80;18.13;;;;;;;-1.69;nan;100913.06;5086754;28;20328;-71
2023/12/09 03:45:50;;;;;;;41.78;18.75;;;;;;;-1.70;nan;100911.44;5080513;28;20032;-72
2023/12/09 03:48:15;;;;;;;37.08;16.52;;;;;;;-1.81;nan;100898.66;5084267;28;20024;-70
2023/12/09 03:50:41;;;;;;;39.78;17.80;;;;;;;-1.80;nan;100910.59;5069746;28;20114;-71
2023/12/09 03:53:07;;;;;;;38.10;16.55;;;;;;;-1.85;nan;100905.00;5090316;28;20035;-71
2023/12/09 03:55:32;;;;;;;38.17;17.10;;;;;;;-1.85;nan;100897.25;5083870;28;20029;-70
2023/12/09 03:57:57;;;;;;;39.88;16.63;;;;;;;-1.93;nan;100896.16;5084958;28;20028;-70
2023/12/09 04:00:23;;;;;;;37.30;17.02;;;;;;;-1.81;nan;100916.72;5086567;28;20030;-70
2023/12/09 04:02:49;;;;;;;40.35;16.90;;;;;;;-2.64;nan;100787.03;5091681;28;20019;-70
2023/12/09 04:05:14;;;;;;;41.35;18.88;;;;;;;-1.92;nan;100912.44;5052694;28;20043;-71
2023/12/09 04:07:40;;;;;;;40.92;19.50;;;;;;;-1.92;nan;100909.88;5086669;28;20081;-70
2023/12/09 04:10:06;;;;;;;41.90;19.55;;;;;;;-1.84;nan;100932.47;5080580;28;20058;-71
2023/12/09 04:12:32;;;;;;;41.78;18.80;;;;;;;-1.82;nan;100931.41;5082719;28;20435;-70
2023/12/09 04:14:57;;;;;;;35.72;17.23;;;;;;;-1.81;nan;100929.63;5079065;28;20036;-70
2023/12/09 04:17:23;;;;;;;40.08;17.88;;;;;;;-1.94;nan;100906.59;5088812;28;20030;-71
2023/12/09 04:19:48;;;;;;;39.20;17.52;;;;;;;-1.94;nan;100904.88;5089649;28;20073;-71
2023/12/09 04:22:14;;;;;;;41.58;18.00;;;;;;;-1.91;nan;100914.09;5104989;28;20000;-71
2023/12/09 04:24:42;;;;;;;39.22;17.88;;;;;;;-1.93;nan;100911.66;5109625;28;20024;-71
2023/12/09 04:27:08;;;;;;;40.67;17.57;;;;;;;-1.82;nan;100939.13;5110182;28;20047;-71
2023/12/09 04:29:34;;;;;;;39.53;18.48;;;;;;;-1.85;nan;100935.97;5111004;28;20380;-69
2023/12/09 04:31:59;;;;;;;47.35;20.40;;;;;;;-1.98;nan;100928.47;5093806;28;20028;-70
2023/12/09 04:34:25;;;;;;;50.35;19.90;;;;;;;-1.97;nan;100932.69;5087062;28;20028;-69
2023/12/09 04:36:50;;;;;;;46.72;20.65;;;;;;;-1.99;nan;100938.00;5089624;28;20390;-70
2023/12/09 04:39:16;;;;;;;49.95;20.65;;;;;;;-2.06;nan;100947.19;5088878;28;20024;-69
2023/12/09 04:41:42;;;;;;;53.55;22.08;;;;;;;-2.17;nan;100937.75;5091572;28;20499;-70
2023/12/09 04:44:08;;;;;;;57.65;23.90;;;;;;;-2.19;nan;100937.06;5087183;28;20030;-72
2023/12/09 04:46:34;;;;;;;54.05;22.27;;;;;;;-2.19;nan;100936.25;5085344;28;20048;-71
2023/12/09 04:49:00;;;;;;;55.30;22.70;;;;;;;-2.28;nan;100939.59;5084064;28;20367;-70
2023/12/09 04:51:26;;;;;;;49.55;21.02;;;;;;;-2.28;nan;100937.03;5089128;28;20052;-72
2023/12/09 04:53:51;;;;;;;47.22;20.55;;;;;;;-2.47;nan;100917.91;5091989;28;20032;-70
2023/12/09 04:56:17;;;;;;;44.25;19.75;;;;;;;-2.46;nan;100913.59;5094456;28;20023;-71
2023/12/09 04:58:43;;;;;;;44.00;19.55;;;;;;;-2.35;nan;100931.53;5085658;28;20046;-71
2023/12/09 05:01:08;;;;;;;42.65;18.95;;;;;;;-2.43;nan;100916.72;5083077;28;20016;-71
2023/12/09 05:03:34;;;;;;;44.67;19.98;;;;;;;-2.27;nan;100943.84;5089836;28;20016;-71
2023/12/09 05:06:00;;;;;;;46.92;18.90;;;;;;;-2.32;nan;100931.31;5074850;28;20031;-72
2023/12/09 05:08:25;;;;;;;44.08;18.58;;;;;;;-2.28;nan;100939.59;5084690;28;20017;-70
2023/12/09 05:10:51;;;;;;;42.80;19.10;;;;;;;-2.47;nan;100909.38;5086896;28;20430;-70
2023/12/09 05:13:16;;;;;;;43.95;18.10;;;;;;;-2.37;nan;100929.13;5088012;28;20024;-71
2023/12/09 05:15:42;;;;;;;41.70;19.30;;;;;;;-2.66;nan;100881.72;5082252;28;20562;-71
2023/12/09 05:18:07;;;;;;;39.35;18.00;;;;;;;-2.40;nan;100928.53;5080827;28;20419;-71
2023/12/09 05:20:33;;;;;;;40.33;17.88;;;;;;;-2.50;nan;100918.16;5085699;28;20035;-70
2023/12/09 05:22:58;;;;;;;41.20;18.05;;;;;;;-2.31;nan;100945.03;5087150;28;20035;-71
2023/12/09 05:25:24;;;;;;;41.85;18.60;;;;;;;-2.43;nan;100929.63;5091549;28;20092;-71
2023/12/09 05:27:49;;;;;;;44.95;17.48;;;;;;;-2.41;nan;100930.31;5089779;28;20023;-71
2023/12/09 05:30:14;;;;;;;46.22;17.67;;;;;;;-2.33;nan;100937.41;5087117;28;20500;-71
2023/12/09 05:32:40;;;;;;;40.92;18.83;;;;;;;-2.32;nan;100930.47;5076939;28;20106;-71
2023/12/09 05:35:06;;;;;;;45.55;18.52;;;;;;;-2.22;nan;100947.66;5083070;28;20016;-71
2023/12/09 05:37:31;;;;;;;44.33;19.48;;;;;;;-2.27;nan;100934.31;5085502;28;20074;-72
2023/12/09 05:39:57;;;;;;;45.05;19.92;;;;;;;-2.30;nan;100933.75;5092692;28;20437;-71
2023/12/09 05:42:22;;;;;;;42.30;19.05;;;;;;;-2.33;nan;100927.09;5081666;28;20110;-70
2023/12/09 05:44:48;;;;;;;44.47;18.33;;;;;;;-2.31;nan;100925.19;5090844;28;20118;-71
2023/12/09 05:47:13;;;;;;;47.08;20.77;;;;;;;-2.22;nan;100942.50;5089482;28;20020;-70
2023/12/09 05:49:38;;;;;;;46.53;19.83;;;;;;;-2.18;nan;100951.63;5082975;28;20028;-71
2023/12/09 05:52:04;;;;;;;48.15;21.08;;;;;;;-2.23;nan;100934.88;5087841;28;20075;-70
2023/12/09 05:54:31;;;;;;;43.47;19.88;;;;;;;-2.13;nan;100953.81;5086422;28;20028;-71
2023/12/09 05:56:57;;;;;;;44.70;19.73;;;;;;;-2.13;nan;100953.81;5082098;28;20025;-72
2023/12/09 05:59:22;;;;;;;51.13;20.65;;;;;;;-2.14;nan;100952.16;5088227;28;20396;-71
2023/12/09 06:01:48;;;;;;;47.50;20.25;;;;;;;-2.05;nan;100972.03;5091240;28;20024;-72
2023/12/09 06:04:13;;;;;;;48.63;21.50;;;;;;;-2.13;nan;100953.81;5086409;28;20024;-72
2023/12/09 06:06:38;;;;;;;49.05;20.77;;;;;;;-2.21;nan;100940.72;5072028;28;20016;-72
2023/12/09 06:09:04;;;;;;;46.75;20.95;;;;;;;-2.00;nan;100969.88;5082830;28;20421;-72
2023/12/09 06:11:30;;;;;;;45.80;20.63;;;;;;;-2.16;nan;100938.56;5086604;28;20509;-73
2023/12/09 06:13:55;;;;;;;47.97;20.73;;;;;;;-1.96;nan;100966.09;5065309;28;20028;-73
2023/12/09 06:16:21;;;;;;;48.10;21.92;;;;;;;-1.97;nan;100964.47;5084966;28;20621;-72
2023/12/09 06:18:47;;;;;;;50.45;20.08;;;;;;;-1.94;nan;100977.13;5062042;28;20082;-73
2023/12/09 06:21:23;;;;;;;50.00;21.50;;;;;;;-1.95;nan;100977.25;5085559;28;20020;-72
2023/12/09 06:23:49;;;;;;;47.05;19.83;;;;;;;-1.99;nan;100968.97;5093008;28;20549;-71
2023/12/09 06:26:15;;;;;;;49.30;21.35;;;;;;;-1.99;nan;100976.69;5090625;28;20031;-72
2023/12/09 06:28:40;;;;;;;45.88;20.60;;;;;;;-2.02;nan;100969.19;5085023;28;20084;-76
2023/12/09 06:31:06;;;;;;;53.78;22.73;;;;;;;-2.13;nan;100953.81;5086305;28;20092;-76
2023/12/09 06:33:31;;;;;;;51.80;21.10;;;;;;;-2.13;nan;100948.66;5067221;28;20032;-76
2023/12/09 06:35:57;;;;;;;49.50;22.75;;;;;;;-2.23;nan;100929.72;5082810;28;20535;-75
2023/12/09 06:38:22;;;;;;;54.33;22.98;;;;;;;-1.94;nan;100968.53;5080846;28;20035;-75
2023/12/09 06:40:48;;;;;;;52.35;22.67;;;;;;;-1.94;nan;100961.63;5084008;28;20127;-76
2023/12/09 06:43:13;;;;;;;55.22;22.33;;;;;;;-1.89;nan;100966.41;5080805;28;20023;-76
2023/12/09 06:45:39;;;;;;;53.90;22.38;;;;;;;-1.88;nan;100962.88;5082014;28;20030;-76
2023/12/09 06:48:04;;;;;;;51.08;21.67;;;;;;;-1.84;nan;100972.00;5092146;28;20068;-75
2023/12/09 06:50:30;;;;;;;46.03;20.98;;;;;;;-1.71;nan;100985.50;5092674;28;20131;-75
2023/12/09 06:52:55;;;;;;;46.05;20.83;;;;;;;-1.75;nan;100981.56;5086917;28;20024;-76
2023/12/09 06:55:21;;;;;;;42.53;20.13;;;;;;;-1.68;nan;100989.56;5081880;28;20023;-75
2023/12/09 06:57:46;;;;;;;52.47;22.90;;;;;;;-1.81;nan;100961.41;5083651;28;20032;-74
2023/12/09 07:00:12;;;;;;;45.38;19.70;;;;;;;-1.67;nan;100985.25;5084822;28;20151;-75
2023/12/09 07:02:39;;;;;;;41.65;19.35;;;;;;;-1.76;nan;100968.75;5085135;28;20035;-75
2023/12/09 07:05:05;;;;;;;50.15;20.58;;;;;;;-1.57;nan;100996.41;5098118;28;20028;-77
2023/12/09 07:07:30;;;;;;;52.38;20.80;;;;;;;-1.52;nan;101000.22;5086906;28;20031;-76
2023/12/09 07:09:56;;;;;;;49.05;22.02;;;;;;;-1.54;nan;100988.41;5072389;28;20048;-76
2023/12/09 07:12:22;;;;;;;47.90;21.98;;;;;;;-1.57;nan;100978.34;5101976;28;20023;-76
2023/12/09 07:14:48;;;;;;;49.53;21.77;;;;;;;-1.41;nan;100998.47;5114909;28;20024;-75
2023/12/09 07:17:13;;;;;;;54.97;24.15;;;;;;;-1.37;nan;100994.69;5107125;28;20028;-75
2023/12/09 07:19:39;;;;;;;56.92;23.75;;;;;;;-1.39;nan;100988.84;5105787;28;19997;-76
2023/12/09 07:22:05;;;;;;;56.30;24.27;;;;;;;-1.20;nan;101013.91;5111285;28;20390;-75
2023/12/09 07:24:30;;;;;;;53.47;22.70;;;;;;;-1.18;nan;101006.84;5100626;28;20012;-74
2023/12/09 07:26:56;;;;;;;64.40;24.45;;;;;;;-1.08;nan;101011.09;5087112;28;20027;-74
2023/12/09 07:29:21;;;;;;;59.30;23.83;;;;;;;-1.06;nan;100995.44;5082191;28;20032;-74
2023/12/09 07:31:46;;;;;;;58.40;23.58;;;;;;;-1.12;nan;100975.31;5085196;28;20028;-74
2023/12/09 07:34:16;;;;;;;61.47;24.58;;;;;;;-0.90;nan;101006.06;5072846;28;20027;-74
2023/12/09 07:36:42;;;;;;;65.00;24.65;;;;;;;-0.92;nan;100987.28;5090662;28;20060;-74
2023/12/09 07:39:08;;;;;;;49.42;21.38;;;;;;;-0.82;nan;100991.66;5079836;28;20033;-73
2023/12/09 07:41:34;;;;;;;44.38;21.92;;;;;;;-0.72;nan;100992.47;5083874;28;20020;-73
2023/12/09 07:44:00;;;;;;;47.60;21.27;;;;;;;-0.59;nan;101005.94;5081239;28;20024;-74
2023/12/09 07:46:25;;;;;;;50.63;21.63;;;;;;;-0.60;nan;100995.72;5085177;28;20017;-75
2023/12/09 07:48:51;;;;;;;48.30;20.73;;;;;;;-0.55;nan;100996.97;5068213;28;20111;-73
2023/12/09 07:51:16;;;;;;;48.53;20.45;;;;;;;-0.47;nan;101009.19;5065699;28;20054;-73
2023/12/09 07:53:42;;;;;;;44.80;19.98;;;;;;;-0.45;nan;101004.72;5083445;28;20036;-73
2023/12/09 07:56:07;;;;;;;43.20;19.52;;;;;;;-0.37;nan;101002.22;5078601;28;20031;-73
2023/12/09 07:58:33;;;;;;;41.10;18.77;;;;;;;-0.35;nan;101002.09;5087885;28;20033;-72
2023/12/09 08:01:01;;;;;;;39.95;20.17;;;;;;;-0.29;nan;101012.72;5085103;28;20705;-72
2023/12/09 08:03:27;;;;;;;41.08;18.42;;;;;;;-0.19;nan;101020.47;5068599;28;20059;-73
2023/12/09 08:05:52;;;;;;;44.38;20.95;;;;;;;-0.12;nan;101021.56;5083460;28;20056;-73
2023/12/09 08:08:18;;;;;;;40.97;20.90;;;;;;;;;;5086235;28;20418;-73
2023/12/09 08:10:43;;;;;;;40.97;19.70;;;;;;;;;;5088885;28;20038;-71
2023/12/09 08:13:08;;;;;;;43.00;20.83;;;;;;;;;;5075491;28;20024;-73
2023/12/09 08:15:34;;;;;;;41.95;20.02;;;;;;;;;;5084872;28;20032;-74
2023/12/09 08:17:59;;;;;;;45.50;21.13;;;;;;;;;;5068587;28;20871;-73
2023/12/09 08:20:25;;;;;;;48.95;21.17;;;;;;;;;;5086707;28;20028;-74
2023/12/09 08:22:50;;;;;;;48.72;22.00;;;;;;;0.61;nan;101077.88;5072067;28;20034;-74
2023/12/09 08:25:16;;;;;;;55.05;24.25;;;;;;;0.38;nan;101029.03;5083538;28;20077;-75
2023/12/09 08:27:42;;;;;;;59.08;25.67;;;;;;;0.51;nan;101026.09;5067242;28;20547;-75
2023/12/09 08:30:12;;;;;;;52.63;24.33;;;;;;;0.58;nan;101037.53;5067796;28;20805;-74
2023/12/09 08:32:41;;;;;;;59.97;25.17;;;;;;;0.54;nan;101014.63;5082962;28;20068;-74
2023/12/09 08:35:08;;;;;;;;;;;;;;;0.69;nan;101023.53;5091375;28;20024;-74
2023/12/09 08:37:34;;;;;;;48.20;22.00;;;;;;;0.79;nan;101031.25;5088620;28;19916;-73
2023/12/09 08:40:12;;;;;;;57.70;24.88;;;;;;;1.37;nan;101111.31;5088063;28;20023;-73
2023/12/09 08:42:42;;;;;;;54.05;24.45;;;;;;;0.99;nan;101032.78;5068627;28;20113;-75
2023/12/09 08:45:09;;;;;;;55.30;24.52;;;;;;;0.96;nan;101022.72;5078416;28;20034;-73
2023/12/09 08:47:36;;;;;;;58.45;25.25;;;;;;;1.06;nan;101007.91;5070352;28;20424;-72
2023/12/09 08:50:03;;;;;;;53.65;23.00;;;;;;;1.26;nan;101025.91;5086097;28;20107;-73
2023/12/09 08:52:29;;;;;;;56.58;25.75;;;;;;;1.36;nan;101034.41;5065188;28;20047;-73
2023/12/09 08:54:54;;;;;;;52.08;23.13;;;;;;;1.29;nan;101015.22;5088132;28;20067;-73
2023/12/09 08:57:20;;;;;;;50.40;23.52;;;;;;;1.39;nan;101012.53;5068268;28;20114;-74
2023/12/09 08:59:45;;;;;;;50.38;23.05;;;;;;;1.49;nan;101008.91;5086879;28;20112;-74
2023/12/09 09:02:10;;;;;;;51.55;23.17;;;;;;;1.58;nan;101019.34;5088584;28;20601;-73
2023/12/09 09:04:36;;;;;;;47.30;22.42;;;;;;;1.58;nan;101008.97;5082104;28;20027;-74
2023/12/09 09:07:01;;;;;;;49.05;23.27;;;;;;;1.73;nan;101020.44;5090759;28;20521;-74
2023/12/09 09:09:27;;;;;;;50.47;23.27;;;;;;;1.65;nan;100990.06;5077583;28;20032;-74
2023/12/09 09:11:52;;;;;;;51.72;23.77;;;;;;;1.85;nan;101003.66;5091009;28;20028;-74
2023/12/09 09:14:18;;;;;;;52.75;23.77;;;;;;;1.95;nan;101002.75;5085990;28;20046;-74
2023/12/09 09:16:43;;;;;;;47.55;23.40;;;;;;;2.07;nan;100989.31;5080273;28;20033;-73
2023/12/09 09:19:08;;;;;;;48.83;23.15;;;;;;;2.12;nan;100986.25;5085077;28;20035;-74
2023/12/09 09:21:34;;;;;;;50.65;22.67;;;;;;;2.28;nan;100983.75;5088821;28;20691;-72
2023/12/09 09:23:59;;;;;;;48.28;23.35;;;;;;;2.44;nan;100996.00;5069110;28;20073;-73
2023/12/09 09:26:25;;;;;;;47.58;22.63;;;;;;;2.34;nan;100961.50;5085258;28;20509;-73
2023/12/09 09:28:50;;;;;;;52.13;23.25;;;;;;;2.45;nan;100961.22;5065965;28;20722;-72
2023/12/09 09:31:16;;;;;;;51.15;23.75;;;;;;;2.49;nan;100965.16;5070947;28;20031;-74
2023/12/09 09:33:41;;;;;;;41.20;21.23;;;;;;;2.71;nan;100981.94;5088713;28;20035;-73
2023/12/09 09:36:08;;;;;;;38.35;19.70;;;;;;;2.69;nan;100968.28;5083165;28;20048;-75
2023/12/09 09:38:34;;;;;;;36.20;20.65;;;;;;;2.50;nan;100930.38;5084647;28;20073;-72
2023/12/09 09:41:02;;;;;;;41.08;19.75;;;;;;;2.68;nan;100953.66;5081172;28;20116;-73
2023/12/09 09:43:30;;;;;;;38.90;19.67;;;;;;;2.85;nan;100975.31;5086979;28;20030;-72
2023/12/09 09:45:57;;;;;;;37.85;19.50;;;;;;;2.77;nan;100947.47;5086819;28;20032;-72
2023/12/09 09:48:24;;;;;;;36.72;19.02;;;;;;;2.86;nan;100956.13;5088861;28;20038;-73
2023/12/09 09:50:52;;;;;;;34.10;17.80;;;;;;;2.87;nan;100941.31;5095257;28;20043;-72
2023/12/09 09:53:34;;;;;;;31.98;16.40;;;;;;;2.91;nan;100935.66;5078192;28;20036;-72
2023/12/09 09:56:00;;;;;;;30.17;16.13;;;;;;;2.97;nan;100949.81;5075806;28;20024;-73
2023/12/09 09:58:26;;;;;;;29.23;15.48;;;;;;;3.00;nan;100948.66;5085461;28;20028;-73
2023/12/09 10:00:55;;;;;;;36.75;17.45;;;;;;;2.90;nan;100923.63;5090637;28;20059;-73
2023/12/09 10:03:21;;;;;;;;;;;;;;;3.13;nan;100949.78;5107133;28;20076;-73
2023/12/09 10:05:46;;;;;;;28.17;14.25;;;;;;;3.18;nan;100952.75;5105494;28;19908;-73
2023/12/09 10:08:12;;;;;;;26.15;14.73;;;;;;;3.15;nan;100934.03;5099841;28;20088;-72
2023/12/09 10:10:38;;;;;;;30.77;15.57;;;;;;;3.24;nan;100927.03;5093207;28;20024;-72
2023/12/09 10:13:03;;;;;;;25.38;13.68;;;;;;;3.24;nan;100916.63;5098708;28;20025;-72
2023/12/09 10:15:29;;;;;;;23.67;12.70;;;;;;;3.31;nan;100926.22;5080468;28;20494;-73
2023/12/09 10:18:00;;;;;;;25.95;14.18;;;;;;;3.27;nan;100917.09;5068506;28;20034;-72
2023/12/09 10:20:29;;;;;;;24.90;14.02;;;;;;;3.25;nan;100910.44;5082858;28;20030;-72
2023/12/09 10:22:54;;;;;;;25.13;14.15;;;;;;;3.40;nan;100917.44;5087903;28;20020;-73
2023/12/09 10:25:24;;;;;;;25.60;13.45;;;;;;;3.53;nan;100932.53;5076763;28;20034;-73
2023/12/09 10:27:49;;;;;;;25.65;13.48;;;;;;;3.51;nan;100916.25;5078189;28;20035;-72
2023/12/09 10:30:20;;;;;;;22.50;12.38;;;;;;;3.58;nan;100926.81;5089754;28;20494;-71
2023/12/09 10:32:48;;;;;;;24.70;13.18;;;;;;;3.63;nan;100920.13;5083241;28;20024;-69
2023/12/09 10:35:16;;;;;;;21.83;12.38;;;;;;;3.73;nan;100917.34;5087614;28;20023;-70
2023/12/09 10:37:42;;;;;;;27.17;12.82;;;;;;;3.57;nan;100884.38;5064050;28;20066;-70
2023/12/09 10:40:09;;;;;;;22.95;12.57;;;;;;;3.86;nan;100916.84;5088277;28;20056;-70
2023/12/09 10:42:38;;;;;;;22.75;11.82;;;;;;;3.95;nan;100912.38;5085776;28;20016;-70
2023/12/09 10:45:11;;;;;;;22.25;12.13;;;;;;;3.91;nan;100896.28;5071709;28;20077;-69
2023/12/09 10:47:37;;;;;;;24.10;12.52;;;;;;;4.10;nan;100915.94;5083668;28;20600;-73
2023/12/09 10:50:03;;;;;;;21.80;12.57;;;;;;;4.14;nan;100904.19;5086426;28;20136;-69
2023/12/09 10:52:29;;;;;;;22.95;12.80;;;;;;;4.03;nan;100897.53;5087163;28;20047;-70
2023/12/09 10:54:55;;;;;;;20.88;12.63;;;;;;;4.09;nan;100897.84;5092243;28;20117;-70
2023/12/09 10:57:23;;;;;;;25.15;13.25;;;;;;;4.12;nan;100893.13;5084447;28;20093;-69
2023/12/09 10:59:48;;;;;;;31.40;14.77;;;;;;;4.20;nan;100898.28;5082740;28;20610;-69
2023/12/09 11:02:16;;;;;;;26.00;13.02;;;;;;;4.30;nan;100898.06;5064127;28;20036;-69
2023/12/09 11:04:42;;;;;;;28.63;13.88;;;;;;;4.28;nan;100892.22;5067200;28;20024;-69
2023/12/09 11:07:09;;;;;;;26.42;13.45;;;;;;;4.37;nan;100891.19;5082000;28;20024;-70
2023/12/09 11:09:35;;;;;;;26.58;13.60;;;;;;;4.43;nan;100898.34;5085071;28;20039;-68
2023/12/09 11:12:00;;;;;;;22.95;12.60;;;;;;;4.40;nan;100890.03;5061608;28;20028;-70
2023/12/09 11:14:27;;;;;;;25.85;12.98;;;;;;;4.43;nan;100900.09;5081342;28;20074;-69
2023/12/09 11:16:53;;;;;;;21.17;11.30;;;;;;;4.26;nan;100888.94;5082623;28;20064;-70
2023/12/09 11:19:22;;;;;;;22.42;12.35;;;;;;;4.32;nan;100885.69;5087334;28;20031;-69
2023/12/09 11:21:48;;;;;;;22.80;11.80;;;;;;;4.34;nan;100891.53;5069746;28;20047;-70
2023/12/09 11:24:15;;;;;;;22.02;11.85;;;;;;;4.33;nan;100892.50;5079403;28;20098;-71
2023/12/09 11:26:48;;;;;;;23.63;12.95;;;;;;;4.39;nan;100881.41;5080081;28;20050;-69